UKH weather

Mukhaizna Airport
Mukhaizna Oil Field, Al Wusta Governorate, Oman

Public forecast

Using degrees Celsius for public forecast. Weather courtesy of forecast.io.

METAR (pilot weather report)

Report is more than 6 hours old.

Closest report is Ja'Aluni Airport, 51.6 nm (95.6 km) E. Retrieved 2011/06/26 00:50 UTC (8 years ago):

OOJA 260050Z 13006KT 3000 DZ SC005 BKN010 OVC020 26/24 Q1002 RMK53 RH92

TAF (pilot weather forecast)

Forecast is more than 12 hours old.

Closest forecast is Thablotin Airport, 137.2 nm (254.1 km) WNW. Retrieved 2011/04/02 00:00 UTC (8 years ago):

TAF OEBN 022230Z 0300/0406 15006KT 7000 FEW040 SCT100 BECMG 0306/0308 18017KT TEMPO 0306/0311 5000 BLDU BECMG 0312/0314 23015KT